createdAt,value
2018-03-27T03:00:16.472Z,2.50
2018-03-27T03:02:44.791Z,2.90
2018-03-27T03:05:13.865Z,2.70
2018-03-27T03:07:42.196Z,2.70
2018-03-27T03:10:10.508Z,3.00
2018-03-27T03:12:39.615Z,2.00
2018-03-27T03:15:07.926Z,2.00
2018-03-27T03:17:36.276Z,2.20
2018-03-27T03:20:05.377Z,2.40
2018-03-27T03:22:33.711Z,2.40
2018-03-27T03:25:02.021Z,2.30
2018-03-27T03:27:30.363Z,2.10
2018-03-27T03:29:58.678Z,1.90
2018-03-27T03:32:27.032Z,1.80
2018-03-27T03:34:55.349Z,1.60
2018-03-27T03:37:23.654Z,1.20
2018-03-27T03:39:51.979Z,0.80
2018-03-27T03:42:20.288Z,0.70
2018-03-27T03:44:49.383Z,0.90
2018-03-27T03:47:18.457Z,1.20
2018-03-27T03:49:46.797Z,1.20
2018-03-27T03:52:15.100Z,1.40
2018-03-27T03:54:43.431Z,1.60
2018-03-27T03:57:11.746Z,1.90
2018-03-27T03:59:40.193Z,2.00
2018-03-27T04:02:08.495Z,2.30
2018-03-27T04:04:36.831Z,2.20
2018-03-27T04:07:05.908Z,1.80
2018-03-27T04:15:34.761Z,1.90
2018-03-27T04:18:03.831Z,1.30
2018-03-27T04:20:32.178Z,1.30
2018-03-27T04:23:00.482Z,1.20
2018-03-27T04:25:28.813Z,1.40
2018-03-27T04:27:57.120Z,1.70
2018-03-27T04:30:25.452Z,1.80
2018-03-27T04:32:54.528Z,2.20
2018-03-27T04:35:23.636Z,2.40
2018-03-27T04:37:52.710Z,2.30
2018-03-27T04:40:22.038Z,2.30
2018-03-27T04:42:51.118Z,1.80
2018-03-27T04:45:19.445Z,1.80
2018-03-27T04:47:47.744Z,1.90
2018-03-27T04:50:16.084Z,1.80
2018-03-27T04:52:44.394Z,2.00
2018-03-27T04:55:12.707Z,2.00
2018-03-27T04:57:41.819Z,1.30
2018-03-27T05:00:10.896Z,1.40
2018-03-27T05:02:39.221Z,1.50
2018-03-27T05:05:07.530Z,1.60
2018-03-27T05:07:35.855Z,1.70
2018-03-27T05:10:04.168Z,1.80
2018-03-27T05:12:32.523Z,1.70
2018-03-27T05:15:00.838Z,2.10
2018-03-27T05:17:29.169Z,2.30
2018-03-27T05:19:57.480Z,2.30
2018-03-27T05:22:25.811Z,2.10
2018-03-27T05:24:54.120Z,2.20
2018-03-27T05:27:22.448Z,2.20
2018-03-27T05:29:51.550Z,1.90
2018-03-27T05:32:20.669Z,2.00
2018-03-27T05:34:49.000Z,2.00
2018-03-27T05:37:17.356Z,1.90
2018-03-27T05:39:45.664Z,1.40
2018-03-27T05:42:13.976Z,1.30
2018-03-27T05:44:42.307Z,1.70
2018-03-27T05:47:10.624Z,2.10
2018-03-27T05:49:39.723Z,2.00
2018-03-27T05:52:09.949Z,2.00
2018-03-27T05:54:38.277Z,2.00
2018-03-27T05:57:06.584Z,2.10
2018-03-27T05:59:35.687Z,1.80
2018-03-27T06:02:04.771Z,1.80
2018-03-27T06:04:33.865Z,2.00
2018-03-27T06:07:02.176Z,2.00
2018-03-27T06:09:30.524Z,2.00
2018-03-27T06:11:58.831Z,2.00
2018-03-27T06:14:27.135Z,2.00
2018-03-27T06:16:55.469Z,2.00
2018-03-27T06:19:24.544Z,2.50
2018-03-27T06:21:52.873Z,2.40
2018-03-27T06:24:21.180Z,2.60
2018-03-27T06:26:50.339Z,3.00
2018-03-27T06:29:18.604Z,3.00
2018-03-27T06:31:46.939Z,3.20
2018-03-27T06:34:15.258Z,3.20
2018-03-27T06:36:43.595Z,3.30
2018-03-27T06:39:11.931Z,3.30
2018-03-27T06:41:41.135Z,3.20
2018-03-27T06:44:09.450Z,3.20
2018-03-27T06:46:37.780Z,3.40
2018-03-27T06:49:06.088Z,3.40
2018-03-27T06:51:34.438Z,3.30
2018-03-27T06:54:02.748Z,3.10
2018-03-27T06:56:31.079Z,2.90
2018-03-27T06:58:59.393Z,2.90
2018-03-27T07:01:27.756Z,2.90
2018-03-27T07:03:56.866Z,3.10
2018-03-27T07:06:25.375Z,3.10
2018-03-27T07:08:53.707Z,3.30
2018-03-27T07:11:22.013Z,3.30
2018-03-27T07:13:50.353Z,3.30
2018-03-27T07:16:18.660Z,3.40
2018-03-27T07:18:46.992Z,3.50
2018-03-27T07:21:16.064Z,3.00
2018-03-27T07:23:44.387Z,2.90
2018-03-27T07:26:12.697Z,3.00
2018-03-27T07:28:41.096Z,3.10
2018-03-27T07:33:47.167Z,3.70
2018-03-27T07:36:15.483Z,4.10
2018-03-27T07:38:44.566Z,4.50
2018-03-27T07:41:13.631Z,4.80
2018-03-27T07:43:41.960Z,4.80
2018-03-27T07:46:10.272Z,5.10
2018-03-27T07:48:38.611Z,5.40
2018-03-27T07:51:06.911Z,5.40
2018-03-27T07:53:35.217Z,5.50
2018-03-27T07:56:03.543Z,5.90
2018-03-27T07:58:32.608Z,6.10
2018-03-27T08:01:00.931Z,6.10
2018-03-27T08:03:29.236Z,6.10
2018-03-27T08:05:57.554Z,5.60
2018-03-27T08:08:26.649Z,5.70
2018-03-27T08:10:55.857Z,6.00
2018-03-27T08:13:24.931Z,6.50
2018-03-27T08:15:53.267Z,6.50
2018-03-27T08:18:21.568Z,7.10
2018-03-27T08:20:49.873Z,7.30
2018-03-27T08:23:18.212Z,7.80
2018-03-27T08:25:46.515Z,7.90
2018-03-27T08:28:14.832Z,8.10
2018-03-27T08:30:56.927Z,8.40
2018-03-27T08:33:25.343Z,8.60
2018-03-27T08:35:53.648Z,9.00
2018-03-27T08:38:21.986Z,9.30
2018-03-27T08:40:57.217Z,9.60
2018-03-27T08:43:25.612Z,9.70
2018-03-27T08:45:54.636Z,9.70
2018-03-27T08:48:22.959Z,9.70
2018-03-27T08:50:51.287Z,9.60
2018-03-27T08:53:19.611Z,9.50
2018-03-27T08:55:47.918Z,9.20
2018-03-27T08:58:16.252Z,9.30
2018-03-27T09:00:45.345Z,9.80
2018-03-27T09:03:14.635Z,9.70
2018-03-27T09:05:42.963Z,10.00
2018-03-27T09:08:11.319Z,10.10
2018-03-27T09:10:39.641Z,10.40
2018-03-27T09:13:08.019Z,10.10
2018-03-27T09:15:36.351Z,10.40
2018-03-27T09:18:04.661Z,10.80
2018-03-27T09:20:32.996Z,10.90
2018-03-27T09:23:02.072Z,11.20
2018-03-27T09:25:30.399Z,11.10
2018-03-27T09:27:58.715Z,11.50
2018-03-27T09:30:27.072Z,11.70
2018-03-27T09:32:55.376Z,11.60
2018-03-27T09:35:23.720Z,11.40
2018-03-27T09:37:52.039Z,11.60
2018-03-27T09:40:20.368Z,12.00
2018-03-27T09:42:48.691Z,12.00
2018-03-27T09:45:17.028Z,12.00
2018-03-27T09:47:45.331Z,11.80
2018-03-27T09:50:13.664Z,12.00
2018-03-27T09:52:41.971Z,11.70
2018-03-27T09:55:11.068Z,11.50
2018-03-27T09:57:39.372Z,11.50
2018-03-27T10:00:08.486Z,11.70
2018-03-27T10:02:36.832Z,11.70
2018-03-27T10:05:05.163Z,12.00
2018-03-27T10:07:33.470Z,12.00
2018-03-27T10:10:01.800Z,11.50
2018-03-27T10:12:30.877Z,11.60
2018-03-27T10:14:59.213Z,11.50
2018-03-27T10:17:27.511Z,11.70
2018-03-27T10:19:55.843Z,11.70
2018-03-27T10:22:24.148Z,11.90
2018-03-27T10:24:53.640Z,11.90
2018-03-27T10:27:25.004Z,12.10
2018-03-27T10:29:53.403Z,12.10
2018-03-27T10:32:21.737Z,12.40
2018-03-27T10:34:50.039Z,12.30
2018-03-27T10:37:18.372Z,12.30
2018-03-27T10:39:47.453Z,12.30
2018-03-27T10:42:15.780Z,12.30
2018-03-27T10:44:44.093Z,11.90
2018-03-27T10:47:12.420Z,12.00
2018-03-27T10:49:40.732Z,11.80
2018-03-27T10:52:09.076Z,11.90
2018-03-27T10:54:37.388Z,12.00
2018-03-27T10:57:05.736Z,12.10
2018-03-27T10:59:34.046Z,11.70
2018-03-27T11:02:02.443Z,11.70
2018-03-27T11:04:30.703Z,11.90
2018-03-27T11:06:59.048Z,11.70
2018-03-27T11:09:27.399Z,12.10
2018-03-27T11:11:56.505Z,11.70
2018-03-27T11:14:25.604Z,11.60
2018-03-27T11:16:53.935Z,11.60
2018-03-27T11:19:22.265Z,12.00
2018-03-27T11:21:50.591Z,12.10
2018-03-27T11:24:18.900Z,12.40
2018-03-27T11:26:47.995Z,12.90
2018-03-27T11:29:17.095Z,12.70
2018-03-27T11:31:46.195Z,12.50
2018-03-27T11:34:15.270Z,12.30
2018-03-27T11:36:43.603Z,12.20
2018-03-27T11:39:11.903Z,12.00
2018-03-27T11:41:40.235Z,11.80
2018-03-27T11:44:08.542Z,12.20
2018-03-27T11:46:36.880Z,12.10
2018-03-27T11:49:05.949Z,11.70
2018-03-27T11:51:35.062Z,11.50
2018-03-27T11:54:04.144Z,11.60
2018-03-27T11:56:32.496Z,11.50
2018-03-27T11:59:00.834Z,11.30
2018-03-27T12:01:29.159Z,11.10
2018-03-27T12:03:57.469Z,11.00
2018-03-27T12:06:26.647Z,10.90
2018-03-27T12:08:54.957Z,10.90
2018-03-27T12:11:23.290Z,11.00
2018-03-27T12:13:51.609Z,11.10
2018-03-27T12:16:20.707Z,10.60
2018-03-27T12:18:49.785Z,10.50
2018-03-27T12:21:18.123Z,10.50
2018-03-27T12:23:46.427Z,10.30
2018-03-27T12:26:14.772Z,10.40
2018-03-27T12:28:43.072Z,10.30
2018-03-27T12:31:11.417Z,10.40
2018-03-27T12:33:39.715Z,10.20
2018-03-27T12:36:08.141Z,10.40
2018-03-27T12:38:37.211Z,10.60
2018-03-27T12:41:06.327Z,10.80
2018-03-27T12:43:35.404Z,10.70
2018-03-27T12:46:03.736Z,10.70
2018-03-27T12:48:32.036Z,10.80
2018-03-27T12:51:00.367Z,11.00
2018-03-27T12:53:29.447Z,10.80
2018-03-27T12:55:58.544Z,10.60
2018-03-27T12:58:27.617Z,10.50
2018-03-27T13:00:56.047Z,10.50
2018-03-27T13:03:25.123Z,10.70
2018-03-27T13:05:54.252Z,10.50
2018-03-27T13:08:22.555Z,10.50
2018-03-27T13:10:50.859Z,10.60
2018-03-27T13:13:19.201Z,10.60
2018-03-27T13:15:47.508Z,10.80
2018-03-27T13:18:15.840Z,10.80
2018-03-27T13:20:44.153Z,10.90
2018-03-27T13:23:12.492Z,10.70
2018-03-27T13:25:40.808Z,10.60
2018-03-27T13:28:09.143Z,10.70
2018-03-27T13:30:37.459Z,10.90
2018-03-27T13:33:05.807Z,11.00
2018-03-27T13:35:34.144Z,11.20
2018-03-27T13:38:02.475Z,11.40
2018-03-27T13:40:30.795Z,11.00
2018-03-27T13:42:59.892Z,11.20
2018-03-27T13:45:28.963Z,11.10
2018-03-27T13:47:57.339Z,11.00
2018-03-27T13:50:25.626Z,11.00
2018-03-27T13:52:53.956Z,11.00
2018-03-27T13:55:25.684Z,10.90
2018-03-27T13:57:54.775Z,11.00
2018-03-27T14:00:23.872Z,11.10
2018-03-27T14:02:52.194Z,11.10
2018-03-27T14:05:20.499Z,11.20
2018-03-27T14:07:48.836Z,11.20
2018-03-27T14:10:17.216Z,11.00
2018-03-27T14:12:45.596Z,11.00
2018-03-27T14:15:13.891Z,10.90
2018-03-27T14:17:42.244Z,10.70
2018-03-27T14:20:10.548Z,10.70
2018-03-27T14:22:38.883Z,10.70
2018-03-27T14:25:07.955Z,10.70
2018-03-27T14:27:36.287Z,10.70
2018-03-27T14:30:04.604Z,10.70
2018-03-27T14:32:34.055Z,10.80
2018-03-27T14:35:02.385Z,10.80
2018-03-27T14:37:30.702Z,10.90
2018-03-27T14:39:59.035Z,10.80
2018-03-27T14:42:27.359Z,10.70
2018-03-27T14:44:55.672Z,10.60
2018-03-27T14:47:24.056Z,10.70
2018-03-27T14:49:52.345Z,10.80
2018-03-27T14:52:20.676Z,10.60
2018-03-27T14:54:48.995Z,10.70
2018-03-27T14:57:17.323Z,10.30
2018-03-27T14:59:45.631Z,10.00
2018-03-27T15:02:13.959Z,10.10
2018-03-27T15:04:43.043Z,10.20
2018-03-27T15:07:12.214Z,10.40
2018-03-27T15:09:40.515Z,10.40
2018-03-27T15:12:08.849Z,10.30
2018-03-27T15:14:37.150Z,10.30
2018-03-27T15:17:05.491Z,10.30
2018-03-27T15:19:33.796Z,10.40
2018-03-27T15:22:02.127Z,10.50
2018-03-27T15:24:31.215Z,10.40
2018-03-27T15:27:00.323Z,10.40
2018-03-27T15:29:29.397Z,10.20
2018-03-27T15:31:57.728Z,10.20
2018-03-27T15:34:26.119Z,10.10
2018-03-27T15:36:54.419Z,10.20
2018-03-27T15:39:22.739Z,9.80
2018-03-27T15:41:56.958Z,10.10
2018-03-27T15:44:25.290Z,10.30
2018-03-27T15:46:53.600Z,10.50
2018-03-27T15:49:22.708Z,10.40
2018-03-27T15:51:51.090Z,10.40
2018-03-27T15:54:19.404Z,10.50
2018-03-27T15:56:47.707Z,10.40
2018-03-27T15:59:16.057Z,10.20
2018-03-27T16:01:47.531Z,9.90
2018-03-27T16:04:15.864Z,10.10
2018-03-27T16:06:44.173Z,10.20
2018-03-27T16:11:45.326Z,10.10
2018-03-27T16:14:14.420Z,9.70
2018-03-27T16:16:42.739Z,9.70
2018-03-27T16:19:11.067Z,9.80
2018-03-27T16:21:39.388Z,9.80
2018-03-27T16:24:07.715Z,10.10
2018-03-27T16:26:36.020Z,9.90
2018-03-27T16:29:04.351Z,10.00
2018-03-27T16:31:32.664Z,10.10
2018-03-27T16:34:00.991Z,10.10
2018-03-27T16:36:30.064Z,9.80
2018-03-27T16:38:58.387Z,9.80
2018-03-27T16:41:26.762Z,9.60
2018-03-27T16:43:55.096Z,9.60
2018-03-27T16:46:23.400Z,9.40
2018-03-27T16:48:52.547Z,9.30
2018-03-27T16:51:20.817Z,9.30
2018-03-27T16:53:49.135Z,9.30
2018-03-27T16:56:17.436Z,9.20
2018-03-27T16:58:46.532Z,9.30
2018-03-27T17:01:15.592Z,9.30
2018-03-27T17:03:44.020Z,9.30
2018-03-27T17:06:15.673Z,9.20
2018-03-27T17:08:44.168Z,9.10
2018-03-27T17:11:12.588Z,9.20
2018-03-27T17:13:40.920Z,9.20
2018-03-27T17:16:09.228Z,9.30
2018-03-27T17:18:37.556Z,9.20
2018-03-27T17:21:06.666Z,9.20
2018-03-27T17:23:35.002Z,9.10
2018-03-27T17:26:03.327Z,9.10
2018-03-27T17:28:32.552Z,9.00
2018-03-27T17:31:00.877Z,9.00
2018-03-27T17:33:29.947Z,8.90
2018-03-27T17:35:58.268Z,8.80
2018-03-27T17:38:26.567Z,8.90
2018-03-27T17:41:00.515Z,8.80
2018-03-27T17:43:28.837Z,8.80
2018-03-27T17:45:59.118Z,8.80
2018-03-27T17:48:27.423Z,8.90
2018-03-27T17:51:00.059Z,8.80
2018-03-27T17:53:29.351Z,8.70
2018-03-27T17:55:57.680Z,8.70
2018-03-27T17:58:26.781Z,8.60
2018-03-27T18:00:55.916Z,8.60
2018-03-27T18:03:24.238Z,8.50
2018-03-27T18:05:52.546Z,8.60
2018-03-27T18:08:20.876Z,8.60
2018-03-27T18:10:49.269Z,8.60
2018-03-27T18:13:22.554Z,8.60
2018-03-27T18:15:50.856Z,8.50
2018-03-27T18:18:19.961Z,8.60
2018-03-27T18:20:48.259Z,8.60
2018-03-27T18:23:16.608Z,8.60
2018-03-27T18:25:45.671Z,8.50
2018-03-27T18:28:13.997Z,8.50
2018-03-27T18:30:42.293Z,8.50
2018-03-27T18:33:10.730Z,8.40
2018-03-27T18:35:39.798Z,8.50
2018-03-27T18:38:08.136Z,8.50
2018-03-27T18:40:36.435Z,8.50
2018-03-27T18:43:04.770Z,8.50
2018-03-27T18:45:33.855Z,8.60
2018-03-27T18:48:02.931Z,8.50
2018-03-27T18:50:31.267Z,8.50
2018-03-27T18:52:59.571Z,8.50
2018-03-27T18:55:27.908Z,8.50
2018-03-27T18:57:56.245Z,8.60
2018-03-27T19:00:24.597Z,8.50
2018-03-27T19:02:53.727Z,8.50
2018-03-27T19:05:22.836Z,8.50
2018-03-27T19:07:51.151Z,8.50
2018-03-27T19:10:19.499Z,8.60
2018-03-27T19:12:47.810Z,8.60
2018-03-27T19:15:16.123Z,8.60
2018-03-27T19:17:44.437Z,8.60
2018-03-27T19:20:12.765Z,8.50
2018-03-27T19:22:41.076Z,8.50
2018-03-27T19:25:10.169Z,8.40
2018-03-27T19:27:39.246Z,8.30
2018-03-27T19:30:07.682Z,8.30
2018-03-27T19:32:35.988Z,8.30
2018-03-27T19:35:04.317Z,8.20
2018-03-27T19:37:32.628Z,8.30
2018-03-27T19:40:00.955Z,8.20
2018-03-27T19:42:30.028Z,8.50
2018-03-27T19:44:58.359Z,8.50
2018-03-27T19:47:26.668Z,8.60
2018-03-27T19:49:54.996Z,8.70
2018-03-27T19:52:24.072Z,8.90
2018-03-27T19:54:53.170Z,9.00
2018-03-27T19:57:22.248Z,8.90
2018-03-27T19:59:50.575Z,8.90
2018-03-27T20:02:18.875Z,9.10
2018-03-27T20:04:47.227Z,8.80
2018-03-27T20:07:15.541Z,8.40
2018-03-27T20:09:43.868Z,8.50
2018-03-27T20:12:12.935Z,8.70
2018-03-27T20:14:41.268Z,8.70
2018-03-27T20:17:09.567Z,8.60
2018-03-27T20:19:37.964Z,8.40
2018-03-27T20:22:06.277Z,8.30
2018-03-27T20:24:35.372Z,8.30
2018-03-27T20:27:04.448Z,8.40
2018-03-27T20:29:32.772Z,8.40
2018-03-27T20:32:01.081Z,8.60
2018-03-27T20:34:29.424Z,8.50
2018-03-27T20:36:57.733Z,8.30
2018-03-27T20:39:26.146Z,8.10
2018-03-27T20:41:55.240Z,8.10
2018-03-27T20:44:24.322Z,8.20
2018-03-27T20:46:52.647Z,8.20
2018-03-27T20:49:20.955Z,8.20
2018-03-27T20:51:49.286Z,8.10
2018-03-27T20:54:18.351Z,7.90
2018-03-27T20:56:46.685Z,7.90
2018-03-27T20:59:16.924Z,8.00
2018-03-27T21:01:45.253Z,7.90
2018-03-27T21:04:13.575Z,8.00
2018-03-27T21:06:41.943Z,7.70
2018-03-27T21:09:10.247Z,7.70
2018-03-27T21:11:38.573Z,7.80
2018-03-27T21:14:06.887Z,7.70
2018-03-27T21:16:35.208Z,7.70
2018-03-27T21:19:04.277Z,7.60
2018-03-27T21:21:32.604Z,7.60
2018-03-27T21:24:00.910Z,7.80
2018-03-27T21:26:29.245Z,7.70
2018-03-27T21:28:58.311Z,7.70
2018-03-27T21:34:26.651Z,7.70
2018-03-27T21:36:54.981Z,7.70
2018-03-27T21:39:23.287Z,7.70
2018-03-27T21:41:52.382Z,7.30
2018-03-27T21:44:20.680Z,7.30
2018-03-27T21:46:49.000Z,7.40
2018-03-27T21:49:17.328Z,7.50
2018-03-27T21:51:46.412Z,7.40
2018-03-27T21:54:15.489Z,7.40
2018-03-27T21:56:43.816Z,7.30
2018-03-27T21:59:12.182Z,7.30
2018-03-27T22:01:41.268Z,7.30
2018-03-27T22:04:10.396Z,7.40
2018-03-27T22:06:38.753Z,7.30
2018-03-27T22:09:07.080Z,7.10
2018-03-27T22:11:36.167Z,7.10
2018-03-27T22:14:04.475Z,7.10
2018-03-27T22:16:32.800Z,7.50
2018-03-27T22:19:01.103Z,7.30
2018-03-27T22:21:29.426Z,7.30
2018-03-27T22:23:58.511Z,7.20
2018-03-27T22:26:27.591Z,7.30
2018-03-27T22:28:55.971Z,7.20
2018-03-27T22:31:24.310Z,7.10
2018-03-27T22:36:30.448Z,7.00
2018-03-27T22:38:59.511Z,7.10
2018-03-27T22:41:27.820Z,7.10
2018-03-27T22:43:56.913Z,7.00
2018-03-27T22:46:25.993Z,6.90
2018-03-27T22:48:54.312Z,6.80
